Time;durP1;ratioP1;P1;durP2;ratioP2;P2;SDS_P1;SDS_P2;PMS_P1;PMS_P2;Temp;Humidity;BMP_temperature;BMP_pressure;BME280_temperature;BME280_humidity;BME280_pressure;Samples;Min_cycle;Max_cycle;Signal;HPM_P1;HPM_P2
2021/04/06 00:01:14;;;;;;;15.30;8.63;;;;;;;3.28;64.81;98083.38;3553145;27;20057;-50
2021/04/06 00:03:00;;;;;;;15.13;8.80;;;;;;;3.28;64.68;98087.66;3554567;27;20051;-49
2021/04/06 00:04:46;;;;;;;17.30;9.20;;;;;;;3.27;65.04;98081.63;3551030;27;20055;-51
2021/04/06 00:06:30;;;;;;;16.20;9.32;;;;;;;3.27;64.57;98081.63;3552146;27;20047;-49
2021/04/06 00:08:12;;;;;;;15.32;8.63;;;;;;;3.28;65.01;98087.66;3552503;27;20442;-49
2021/04/06 00:09:58;;;;;;;16.95;8.95;;;;;;;3.27;65.22;98088.47;3551103;27;20050;-50
2021/04/06 00:11:42;;;;;;;18.17;9.23;;;;;;;3.27;65.22;98094.44;3541604;27;20491;-52
2021/04/06 00:13:28;;;;;;;17.02;9.05;;;;;;;3.28;64.89;98090.22;3550082;27;20046;-49
2021/04/06 00:15:11;;;;;;;15.65;8.80;;;;;;;3.26;65.04;98097.00;3553653;27;20078;-49
2021/04/06 00:16:54;;;;;;;17.90;9.88;;;;;;;3.23;65.51;98089.25;3538386;27;20459;-50
2021/04/06 00:18:36;;;;;;;18.83;8.98;;;;;;;3.22;65.33;98087.53;3549363;27;20080;-47
2021/04/06 00:20:21;;;;;;;17.50;8.68;;;;;;;3.21;65.70;98086.66;3552910;27;20054;-51
2021/04/06 00:22:05;;;;;;;15.13;9.13;;;;;;;3.17;65.83;98079.78;3552718;27;20046;-51
2021/04/06 00:23:47;;;;;;;17.90;9.80;;;;;;;3.19;65.94;98077.22;3554115;27;20062;-51
2021/04/06 00:25:34;;;;;;;15.52;8.82;;;;;;;3.18;65.74;98084.06;3550848;27;20049;-45
2021/04/06 00:27:18;;;;;;;15.60;8.48;;;;;;;3.17;66.14;98078.91;3551864;27;20046;-44
2021/04/06 00:29:01;;;;;;;16.38;8.82;;;;;;;3.17;66.36;98066.09;3553657;27;20465;-44
2021/04/06 00:30:42;;;;;;;18.38;8.90;;;;;;;3.15;66.22;98072.88;3550309;27;20043;-45
2021/04/06 00:32:27;;;;;;;18.58;9.63;;;;;;;3.13;65.92;98072.00;3554188;27;20049;-44
2021/04/06 00:34:10;;;;;;;17.58;9.10;;;;;;;3.12;66.10;98063.47;3552686;27;20047;-44
2021/04/06 00:35:53;;;;;;;15.55;9.07;;;;;;;3.13;65.92;98066.88;3553700;27;20051;-49
2021/04/06 00:37:44;;;;;;;19.48;9.88;;;;;;;3.12;66.64;98073.72;3550844;27;20060;-52
2021/04/06 00:39:27;;;;;;;17.40;9.55;;;;;;;3.11;66.68;98066.00;3550476;27;20045;-49
2021/04/06 00:41:13;;;;;;;16.45;10.20;;;;;;;3.10;66.61;98067.69;3552755;27;20078;-50
2021/04/06 00:42:59;;;;;;;16.58;9.45;;;;;;;3.09;66.28;98064.25;3550650;27;20107;-49
2021/04/06 00:44:46;;;;;;;17.70;9.38;;;;;;;3.08;66.53;98065.09;3554085;27;20137;-48
2021/04/06 00:46:28;;;;;;;18.67;8.82;;;;;;;3.06;66.63;98064.19;3553842;27;20042;-51
2021/04/06 00:48:13;;;;;;;16.60;8.95;;;;;;;3.06;66.78;98064.19;3552925;27;20070;-49
2021/04/06 00:49:57;;;;;;;16.27;8.95;;;;;;;3.05;66.66;98056.50;3553681;27;20620;-52
2021/04/06 00:51:39;;;;;;;18.20;9.55;;;;;;;3.01;66.87;98060.72;3551247;27;20053;-50
2021/04/06 00:53:22;;;;;;;18.30;9.68;;;;;;;3.00;67.09;98058.13;3553887;27;20426;-49
2021/04/06 00:55:06;;;;;;;17.20;9.30;;;;;;;2.97;67.42;98065.75;3553616;27;20045;-52
2021/04/06 00:56:47;;;;;;;17.35;10.13;;;;;;;2.95;67.41;98052.06;3552405;27;20318;-51
2021/04/06 00:58:29;;;;;;;16.20;9.48;;;;;;;2.97;67.32;98063.19;3551866;27;20063;-50
2021/04/06 01:00:13;;;;;;;18.50;9.95;;;;;;;2.97;67.49;98063.19;3550190;27;20042;-48
2021/04/06 01:01:58;;;;;;;17.05;9.20;;;;;;;2.97;67.50;98053.78;3552513;27;20526;-51
2021/04/06 01:03:40;;;;;;;17.27;9.43;;;;;;;2.96;67.18;98057.22;3550308;27;20047;-48
2021/04/06 01:05:22;;;;;;;21.38;10.05;;;;;;;2.95;67.32;98058.03;3553868;27;20089;-50
2021/04/06 01:07:07;;;;;;;18.33;9.75;;;;;;;2.93;67.56;98061.41;3549942;27;20100;-50
2021/04/06 01:08:51;;;;;;;17.38;9.65;;;;;;;2.90;67.66;98070.75;3551613;27;20456;-45
2021/04/06 01:10:33;;;;;;;19.80;9.70;;;;;;;2.89;67.81;98061.34;3553465;27;20042;-44
2021/04/06 01:12:17;;;;;;;17.48;9.95;;;;;;;2.88;68.02;98066.44;3550056;27;20049;-45
2021/04/06 01:14:01;;;;;;;16.75;9.80;;;;;;;2.85;68.23;98059.59;3551816;27;20050;-45
2021/04/06 01:15:43;;;;;;;23.45;10.13;;;;;;;2.82;68.02;98068.91;3551106;27;20130;-45
2021/04/06 01:17:27;;;;;;;20.45;10.88;;;;;;;2.79;68.16;98069.69;3552930;27;20049;-45
2021/04/06 01:19:09;;;;;;;17.27;9.57;;;;;;;2.77;68.24;98066.25;3550369;27;20074;-45
2021/04/06 01:20:51;;;;;;;15.93;9.95;;;;;;;2.75;68.76;98062.81;3551238;27;20243;-44
2021/04/06 01:22:33;;;;;;;22.90;12.02;;;;;;;2.71;68.92;98071.25;3552090;27;20050;-45
2021/04/06 01:24:15;;;;;;;18.58;10.20;;;;;;;2.68;68.67;98060.97;3551869;27;20054;-45
2021/04/06 01:25:58;;;;;;;21.42;11.32;;;;;;;2.65;68.87;98061.75;3553557;27;20050;-45
2021/04/06 01:27:40;;;;;;;18.73;10.85;;;;;;;2.62;69.28;98058.28;3549714;27;20081;-44
2021/04/06 01:29:21;;;;;;;19.80;10.82;;;;;;;2.59;69.12;98064.22;3552690;27;20062;-44
2021/04/06 01:31:06;;;;;;;17.77;10.07;;;;;;;2.56;69.43;98055.63;3551779;27;20081;-44
2021/04/06 01:32:48;;;;;;;20.27;10.63;;;;;;;2.53;69.47;98055.53;3551211;27;20511;-49
2021/04/06 01:34:30;;;;;;;16.05;9.70;;;;;;;2.51;69.57;98060.63;3552142;27;20070;-48
2021/04/06 01:36:13;;;;;;;18.48;9.45;;;;;;;2.48;70.05;98056.34;3550020;27;20047;-50
2021/04/06 01:37:59;;;;;;;18.52;9.80;;;;;;;2.46;69.98;98055.41;3553468;27;20047;-51
2021/04/06 01:39:41;;;;;;;21.58;10.25;;;;;;;2.47;70.25;98064.81;3549965;27;20062;-49
2021/04/06 01:41:23;;;;;;;14.65;9.40;;;;;;;2.46;70.10;98062.22;3551007;27;20464;-50
2021/04/06 01:43:04;;;;;;;19.42;9.93;;;;;;;2.48;70.34;98068.25;3552990;27;20050;-53
2021/04/06 01:44:48;;;;;;;21.42;9.98;;;;;;;2.47;69.88;98062.28;3549724;27;20050;-52
2021/04/06 01:46:36;;;;;;;17.25;10.15;;;;;;;2.47;69.90;98069.09;3553191;27;20043;-51
2021/04/06 01:48:19;;;;;;;20.50;10.95;;;;;;;2.46;70.25;98067.34;3549676;27;20042;-50
2021/04/06 01:50:01;;;;;;;18.90;9.60;;;;;;;2.45;70.09;98075.88;3552599;27;20519;-49
2021/04/06 01:51:43;;;;;;;18.33;10.10;;;;;;;2.47;70.01;98066.53;3550219;27;20050;-49
2021/04/06 01:53:25;;;;;;;22.58;10.02;;;;;;;2.48;70.04;98061.44;3550520;27;20047;-51
2021/04/06 01:55:14;;;;;;;18.15;10.40;;;;;;;2.49;69.95;98064.88;3552424;27;20050;-49
2021/04/06 01:56:59;;;;;;;18.70;9.93;;;;;;;2.47;70.29;98064.81;3550519;27;20566;-52
2021/04/06 01:58:46;;;;;;;17.60;9.32;;;;;;;2.46;70.42;98060.53;3553175;27;20208;-52
2021/04/06 02:00:33;;;;;;;17.25;10.05;;;;;;;2.45;70.35;98063.09;3549457;27;20055;-50
2021/04/06 02:02:15;;;;;;;19.48;10.32;;;;;;;2.42;70.50;98063.00;3550700;27;20526;-52
2021/04/06 02:04:01;;;;;;;20.38;10.60;;;;;;;2.40;70.42;98065.53;3550553;27;20106;-49
2021/04/06 02:05:45;;;;;;;17.52;10.60;;;;;;;2.38;70.68;98058.66;3549561;27;20277;-49
2021/04/06 02:07:30;;;;;;;19.67;10.65;;;;;;;2.39;70.51;98060.38;3553388;27;20053;-52
2021/04/06 02:09:12;;;;;;;24.98;12.75;;;;;;;2.38;70.87;98056.97;3549509;27;20583;-50
2021/04/06 02:10:55;;;;;;;18.77;10.50;;;;;;;2.36;71.11;98057.75;3552287;27;20073;-53
2021/04/06 02:12:39;;;;;;;24.95;12.15;;;;;;;2.36;71.00;98055.19;3552878;27;20505;-51
2021/04/06 02:14:22;;;;;;;19.58;10.90;;;;;;;2.35;70.84;98054.34;3547992;27;20108;-50
2021/04/06 02:16:04;;;;;;;19.58;10.80;;;;;;;2.36;71.05;98061.22;3552839;27;20046;-53
2021/04/06 02:17:49;;;;;;;19.95;10.90;;;;;;;2.36;71.18;98061.22;3551837;27;20039;-49
2021/04/06 02:19:32;;;;;;;18.33;10.50;;;;;;;2.36;70.88;98050.09;3552798;27;20205;-50
2021/04/06 02:21:13;;;;;;;18.30;10.10;;;;;;;2.36;70.76;98052.66;3549231;27;20514;-49
2021/04/06 02:22:57;;;;;;;18.45;10.75;;;;;;;2.35;70.84;98050.94;3550819;27;20464;-50
2021/04/06 02:24:40;;;;;;;20.73;10.80;;;;;;;2.36;70.84;98055.19;3551884;27;20058;-49
2021/04/06 02:26:22;;;;;;;20.65;10.40;;;;;;;2.37;71.03;98046.72;3550172;27;20042;-52
2021/04/06 02:28:04;;;;;;;17.75;10.25;;;;;;;2.40;70.69;98049.34;3552685;27;20050;-50
2021/04/06 02:29:47;;;;;;;19.40;10.77;;;;;;;2.41;70.67;98045.94;3549202;27;20043;-50
2021/04/06 02:31:29;;;;;;;21.27;10.55;;;;;;;2.41;70.80;98045.94;3552834;27;20103;-51
2021/04/06 02:33:10;;;;;;;20.50;10.85;;;;;;;2.43;70.64;98039.13;3548555;27;20047;-50
2021/04/06 02:34:54;;;;;;;19.45;10.55;;;;;;;2.46;70.36;98040.06;3550605;27;20042;-49
2021/04/06 02:36:35;;;;;;;15.65;9.27;;;;;;;2.47;70.45;98040.94;3552436;27;20100;-51
2021/04/06 02:38:31;;;;;;;20.15;10.63;;;;;;;2.49;70.44;98044.38;3551253;27;20042;-49
2021/04/06 02:40:27;;;;;;;16.55;9.60;;;;;;;2.51;70.46;98045.28;3552080;27;20504;-50
2021/04/06 02:42:19;;;;;;;21.02;10.43;;;;;;;2.54;70.00;98047.03;3549151;27;20077;-50
2021/04/06 02:44:00;;;;;;;20.13;10.00;;;;;;;2.56;69.96;98042.81;3551601;27;20463;-50
2021/04/06 02:45:42;;;;;;;18.00;9.82;;;;;;;2.59;70.03;98053.09;3552534;27;20126;-50
2021/04/06 02:47:25;;;;;;;21.15;11.52;;;;;;;2.59;69.97;98056.53;3548984;27;20047;-50
2021/04/06 02:49:06;;;;;;;22.33;10.43;;;;;;;2.63;69.85;98047.22;3552392;27;20098;-49
2021/04/06 02:50:48;;;;;;;20.23;10.48;;;;;;;2.64;69.96;98052.38;3549236;27;20046;-53
2021/04/06 02:52:30;;;;;;;16.88;10.27;;;;;;;2.66;69.52;98052.38;3551193;27;20461;-53
2021/04/06 02:54:13;;;;;;;20.45;9.70;;;;;;;2.68;69.52;98038.78;3550542;27;20043;-50
2021/04/06 02:55:54;;;;;;;20.05;10.57;;;;;;;2.70;69.63;98041.38;3550382;27;20046;-52
2021/04/06 02:57:41;;;;;;;17.58;10.90;;;;;;;2.69;69.64;98034.50;3551178;27;20047;-50
2021/04/06 02:59:23;;;;;;;18.95;11.13;;;;;;;2.68;69.36;98038.78;3548832;27;20078;-50
2021/04/06 03:01:15;;;;;;;18.45;10.98;;;;;;;2.68;69.43;98043.03;3552192;27;20046;-49
2021/04/06 03:02:58;;;;;;;19.10;9.63;;;;;;;2.67;69.55;98041.31;3548929;27;20095;-49
2021/04/06 03:04:40;;;;;;;19.07;10.83;;;;;;;2.67;69.64;98033.63;3549644;27;20043;-49
2021/04/06 03:06:22;;;;;;;19.98;10.48;;;;;;;2.68;69.74;98041.34;3550759;27;20289;-51
2021/04/06 03:08:04;;;;;;;22.17;10.52;;;;;;;2.67;69.30;98043.88;3549070;27;20061;-52
2021/04/06 03:09:54;;;;;;;18.23;10.02;;;;;;;2.67;69.54;98044.72;3552341;27;20514;-49
2021/04/06 03:11:41;;;;;;;23.35;10.68;;;;;;;2.67;69.57;98038.75;3549752;27;20074;-50
2021/04/06 03:13:26;;;;;;;18.70;10.25;;;;;;;2.66;69.66;98045.56;3548777;27;20178;-52
2021/04/06 03:15:08;;;;;;;18.48;10.07;;;;;;;2.66;69.35;98049.81;3550807;27;20046;-51
2021/04/06 03:16:51;;;;;;;18.17;10.27;;;;;;;2.66;69.58;98049.81;3548746;27;20096;-51
2021/04/06 03:18:35;;;;;;;21.73;11.60;;;;;;;2.67;69.38;98059.22;3552409;27;20058;-50
2021/04/06 03:20:19;;;;;;;19.48;10.43;;;;;;;2.67;69.54;98065.19;3548713;27;20047;-52
2021/04/06 03:22:00;;;;;;;18.13;10.13;;;;;;;2.66;69.84;98063.50;3551646;27;20046;-50
2021/04/06 03:23:41;;;;;;;18.77;10.75;;;;;;;2.64;69.74;98066.84;3549069;27;20468;-50
2021/04/06 03:25:23;;;;;;;19.40;10.50;;;;;;;2.63;69.95;98065.13;3551026;27;20038;-49
2021/04/06 03:27:06;;;;;;;19.77;10.38;;;;;;;2.63;69.76;98067.69;3550611;27;20055;-51
2021/04/06 03:28:48;;;;;;;19.75;10.30;;;;;;;2.62;69.93;98060.84;3549649;27;20045;-50
2021/04/06 03:30:34;;;;;;;20.08;11.20;;;;;;;2.61;69.86;98057.41;3552145;27;20055;-50
2021/04/06 03:32:16;;;;;;;18.25;11.13;;;;;;;2.63;69.56;98057.44;3548539;27;20046;-51
2021/04/06 03:33:59;;;;;;;17.58;9.48;;;;;;;2.63;69.81;98066.00;3551852;27;20092;-49
2021/04/06 03:35:41;;;;;;;20.35;10.77;;;;;;;2.65;69.89;98060.91;3549567;27;20057;-50
2021/04/06 03:37:23;;;;;;;24.20;10.68;;;;;;;2.66;69.69;98068.63;3549740;27;20047;-50
2021/04/06 03:39:06;;;;;;;18.80;10.15;;;;;;;2.67;69.83;98059.22;3550802;27;20050;-50
2021/04/06 03:40:47;;;;;;;20.30;10.40;;;;;;;2.67;69.74;98062.63;3548730;27;20072;-50
2021/04/06 03:42:29;;;;;;;20.10;10.23;;;;;;;2.69;69.15;98062.69;3551976;27;20079;-51
2021/04/06 03:44:13;;;;;;;18.45;10.52;;;;;;;2.71;69.33;98068.69;3548400;27;20050;-51
2021/04/06 03:45:56;;;;;;;22.85;10.45;;;;;;;2.73;69.37;98069.59;3550594;27;20530;-50
2021/04/06 03:47:57;;;;;;;20.05;10.35;;;;;;;2.78;69.15;98059.44;3550058;27;20053;-52
2021/04/06 03:49:46;;;;;;;21.10;11.18;;;;;;;2.82;69.43;98058.66;3549482;27;20055;-49
2021/04/06 03:51:29;;;;;;;19.50;9.88;;;;;;;2.84;69.21;98057.00;3551965;27;20141;-51
2021/04/06 03:53:11;;;;;;;21.37;10.60;;;;;;;2.86;68.86;98060.44;3548575;27;20047;-49
2021/04/06 03:54:53;;;;;;;21.30;10.90;;;;;;;2.88;68.83;98058.75;3552602;27;20663;-52
2021/04/06 03:56:34;;;;;;;20.05;10.57;;;;;;;2.89;68.83;98069.03;3554854;27;20091;-52
2021/04/06 03:58:17;;;;;;;18.23;10.38;;;;;;;2.92;68.93;98075.03;3551710;27;20477;-53
2021/04/06 03:59:59;;;;;;;16.77;10.05;;;;;;;2.93;68.68;98064.84;3553812;27;20050;-51
2021/04/06 04:01:40;;;;;;;18.42;10.40;;;;;;;2.95;68.39;98062.31;3550746;27;20051;-50
2021/04/06 04:03:22;;;;;;;17.42;10.02;;;;;;;2.97;68.39;98061.47;3554315;27;20042;-50
2021/04/06 04:05:05;;;;;;;18.17;10.52;;;;;;;2.99;68.27;98054.69;3552916;27;20046;-50
2021/04/06 04:06:46;;;;;;;20.25;10.40;;;;;;;3.01;68.11;98064.97;3552331;27;20088;-53
2021/04/06 04:08:28;;;;;;;17.45;10.23;;;;;;;3.03;67.92;98059.03;3552804;27;20530;-52
2021/04/06 04:10:11;;;;;;;18.98;9.48;;;;;;;3.06;67.81;98065.91;3553117;27;20068;-50
2021/04/06 04:11:52;;;;;;;20.27;10.13;;;;;;;3.07;67.49;98058.25;3554135;27;20081;-53
2021/04/06 04:13:34;;;;;;;18.17;9.95;;;;;;;3.11;67.67;98059.16;3548908;27;20068;-51
2021/04/06 04:15:17;;;;;;;17.92;10.30;;;;;;;3.13;67.44;98054.91;3554250;27;20129;-52
2021/04/06 04:16:59;;;;;;;17.17;10.07;;;;;;;3.16;67.35;98059.25;3550855;27;20089;-52
2021/04/06 04:18:41;;;;;;;19.83;10.95;;;;;;;3.17;67.28;98055.84;3552045;27;20047;-52
2021/04/06 04:20:23;;;;;;;20.77;11.13;;;;;;;3.18;67.32;98052.44;3554944;27;20070;-51
2021/04/06 04:22:04;;;;;;;19.52;10.07;;;;;;;3.20;66.95;98054.19;3550584;27;20043;-53
2021/04/06 04:23:46;;;;;;;19.10;10.43;;;;;;;3.24;67.01;98055.09;3540341;28;20055;-45
2021/04/06 04:25:28;;;;;;;17.63;9.70;;;;;;;3.26;67.26;98056.00;3546679;27;20452;-45
2021/04/06 04:27:09;;;;;;;19.33;10.52;;;;;;;3.30;67.17;98067.16;3554026;27;20054;-45
2021/04/06 04:28:51;;;;;;;18.02;9.98;;;;;;;3.32;66.98;98075.75;3550327;27;20057;-45
2021/04/06 04:30:38;;;;;;;22.58;10.20;;;;;;;3.36;66.65;98073.25;3551921;27;20043;-45
2021/04/06 04:32:19;;;;;;;15.38;7.88;;;;;;;3.40;66.43;98081.84;3553256;27;20054;-52
2021/04/06 04:34:01;;;;;;;20.17;11.20;;;;;;;3.43;66.69;98079.34;3550313;27;20039;-51
2021/04/06 04:35:43;;;;;;;24.80;10.60;;;;;;;3.45;66.93;98077.66;3554146;27;20055;-53
2021/04/06 04:37:24;;;;;;;20.15;10.98;;;;;;;3.45;66.72;98075.97;3552740;27;20177;-51
2021/04/06 04:39:06;;;;;;;19.73;10.43;;;;;;;3.46;66.58;98074.25;3553369;27;20444;-53
2021/04/06 04:40:47;;;;;;;21.98;11.43;;;;;;;3.46;66.63;98072.56;3550851;27;20046;-51
2021/04/06 04:42:28;;;;;;;21.00;10.65;;;;;;;3.45;67.23;98072.53;3551495;27;20051;-51
2021/04/06 04:44:10;;;;;;;21.33;11.02;;;;;;;3.45;66.96;98073.41;3552634;27;20046;-53
2021/04/06 04:45:52;;;;;;;23.85;12.10;;;;;;;3.45;67.46;98067.41;3550633;27;20055;-52
2021/04/06 04:47:34;;;;;;;19.30;10.90;;;;;;;3.46;67.54;98071.69;3553830;27;20042;-53
2021/04/06 04:49:15;;;;;;;20.60;10.88;;;;;;;3.45;67.03;98065.72;3550087;27;20064;-52
2021/04/06 04:50:56;;;;;;;16.98;9.60;;;;;;;3.46;67.44;98064.88;3553409;27;20050;-53
2021/04/06 04:52:38;;;;;;;19.08;10.73;;;;;;;3.48;66.94;98067.47;3550946;27;20069;-53
2021/04/06 04:54:19;;;;;;;21.20;10.75;;;;;;;3.49;67.25;98063.19;3551556;27;20554;-50
2021/04/06 04:56:01;;;;;;;19.20;10.90;;;;;;;3.50;66.69;98072.63;3553542;27;20054;-53
2021/04/06 04:57:43;;;;;;;20.33;10.15;;;;;;;3.52;67.09;98069.22;3550116;27;20074;-51
2021/04/06 04:59:24;;;;;;;21.90;10.52;;;;;;;3.55;67.21;98079.53;3553645;27;20050;-52
2021/04/06 05:01:06;;;;;;;22.83;10.80;;;;;;;3.58;67.17;98073.59;3550009;27;20042;-50
2021/04/06 05:02:47;;;;;;;18.73;10.20;;;;;;;3.62;66.63;98076.22;3553803;27;20488;-50
2021/04/06 05:04:28;;;;;;;21.70;10.55;;;;;;;3.67;66.39;98078.88;3548970;27;20500;-53
2021/04/06 05:06:10;;;;;;;24.88;10.75;;;;;;;3.72;66.47;98084.03;3551648;27;20053;-52
2021/04/06 05:07:51;;;;;;;21.80;10.52;;;;;;;3.75;66.72;98087.50;3552157;27;20050;-52
2021/04/06 05:09:32;;;;;;;25.98;10.70;;;;;;;3.81;65.88;98086.78;3550174;27;20043;-52
2021/04/06 05:11:14;;;;;;;16.52;10.07;;;;;;;3.85;66.02;98081.69;3553367;27;20046;-51
2021/04/06 05:12:55;;;;;;;18.85;10.07;;;;;;;3.91;65.80;98077.50;3552093;27;20050;-53
2021/04/06 05:14:36;;;;;;;21.60;10.95;;;;;;;3.96;65.51;98081.84;3552384;27;20046;-49
2021/04/06 05:16:19;;;;;;;23.33;10.88;;;;;;;4.00;65.40;98075.03;3549821;27;20047;-54
2021/04/06 05:18:00;;;;;;;22.75;12.13;;;;;;;4.07;65.20;98081.13;3551411;27;20411;-49
2021/04/06 05:19:42;;;;;;;24.52;11.98;;;;;;;4.11;64.83;98073.50;3552002;27;20078;-49
2021/04/06 05:21:23;;;;;;;22.02;11.65;;;;;;;4.18;64.45;98082.16;3550582;27;20085;-49
2021/04/06 05:23:04;;;;;;;21.70;11.13;;;;;;;4.23;64.46;98072.81;3553340;27;20051;-51
2021/04/06 05:24:45;;;;;;;21.88;10.80;;;;;;;4.31;64.82;98070.34;3552204;27;20046;-50
2021/04/06 05:26:27;;;;;;;18.35;10.43;;;;;;;4.36;64.02;98072.13;3553775;27;20122;-46
2021/04/06 05:28:08;;;;;;;26.63;11.55;;;;;;;4.45;64.20;98073.06;3551213;27;20510;-45
2021/04/06 05:29:49;;;;;;;20.58;10.77;;;;;;;4.52;63.58;98083.44;3551569;27;20047;-45
2021/04/06 05:31:32;;;;;;;20.98;11.38;;;;;;;4.58;63.22;98072.38;3554244;27;20078;-45
2021/04/06 05:33:13;;;;;;;18.75;10.40;;;;;;;4.66;63.08;98070.75;3549999;27;20054;-45
2021/04/06 05:34:55;;;;;;;22.80;10.60;;;;;;;4.77;63.34;98066.59;3553420;27;20061;-45
2021/04/06 05:36:36;;;;;;;22.17;10.80;;;;;;;4.90;63.09;98064.13;3551122;27;20541;-45
2021/04/06 05:38:18;;;;;;;19.77;10.93;;;;;;;5.01;61.88;98067.69;3552938;27;20077;-45
2021/04/06 05:39:59;;;;;;;20.65;11.23;;;;;;;5.13;61.56;98066.94;3550684;27;20058;-46
2021/04/06 05:41:43;;;;;;;20.42;11.00;;;;;;;5.21;61.33;98062.72;3552063;27;20039;-46
2021/04/06 05:43:25;;;;;;;27.45;11.35;;;;;;;5.34;61.04;98063.69;3553102;27;20046;-46
2021/04/06 05:45:09;;;;;;;18.85;11.48;;;;;;;5.42;60.04;98063.78;3549516;27;21240;-46
2021/04/06 05:46:52;;;;;;;;;;;;;;;5.52;60.46;98065.59;3553820;27;20050;-45
2021/04/06 05:48:35;;;;;;;22.73;11.23;;;;;;;5.62;59.86;98067.34;3549442;27;19923;-45
2021/04/06 05:50:17;;;;;;;17.83;11.20;;;;;;;5.72;59.19;98071.72;3551538;27;20043;-46
2021/04/06 05:51:59;;;;;;;18.27;10.48;;;;;;;5.83;59.32;98060.63;3551657;27;20051;-46
2021/04/06 05:53:40;;;;;;;15.55;9.80;;;;;;;5.98;58.86;98065.88;3550794;27;20043;-46
2021/04/06 05:55:22;;;;;;;19.05;10.23;;;;;;;6.06;57.94;98061.63;3559986;27;20058;-46
2021/04/06 05:57:04;;;;;;;18.15;10.82;;;;;;;6.17;57.45;98076.28;3549377;27;20074;-46
2021/04/06 05:58:45;;;;;;;18.40;9.93;;;;;;;6.24;57.27;98072.88;3553108;27;20105;-46
2021/04/06 06:00:27;;;;;;;24.40;11.27;;;;;;;6.33;57.55;98072.94;3551624;27;20431;-46
2021/04/06 06:02:10;;;;;;;17.02;9.60;;;;;;;6.45;57.61;98080.72;3551331;27;20080;-45
2021/04/06 06:03:52;;;;;;;20.63;10.23;;;;;;;6.54;56.15;98073.88;3550481;27;20519;-45
2021/04/06 06:05:33;;;;;;;18.63;10.70;;;;;;;6.60;55.60;98076.50;3550870;27;20046;-47
2021/04/06 06:07:16;;;;;;;17.83;10.07;;;;;;;6.72;55.99;98081.69;3553838;27;20149;-47
2021/04/06 06:08:59;;;;;;;19.30;11.50;;;;;;;6.83;55.46;98067.09;3551488;27;20407;-46
2021/04/06 06:10:41;;;;;;;20.70;10.52;;;;;;;6.96;55.42;98073.16;3553063;27;20046;-48
2021/04/06 06:12:22;;;;;;;18.40;10.65;;;;;;;7.00;54.84;98079.19;3551419;27;20461;-46
2021/04/06 06:14:05;;;;;;;19.83;10.98;;;;;;;7.03;54.18;98069.75;3549703;27;20042;-46
2021/04/06 06:16:06;;;;;;;21.90;10.68;;;;;;;7.13;55.11;98068.06;3552719;27;20082;-46
2021/04/06 06:18:10;;;;;;;18.40;10.98;;;;;;;7.26;54.25;98071.50;3549606;27;20049;-45
2021/04/06 06:19:52;;;;;;;20.00;10.68;;;;;;;7.35;54.78;98070.66;3542902;27;20054;-46
2021/04/06 06:21:43;;;;;;;19.33;10.73;;;;;;;7.33;53.69;98069.78;3553383;27;20074;-45
2021/04/06 06:23:24;;;;;;;16.98;9.95;;;;;;;7.41;54.66;98068.94;3549080;27;20393;-46
2021/04/06 06:25:08;;;;;;;19.13;10.32;;;;;;;7.56;55.26;98075.81;3552853;27;20057;-47
2021/04/06 06:26:50;;;;;;;18.00;10.32;;;;;;;7.63;52.20;98081.84;3550194;27;20079;-47
2021/04/06 06:29:15;;;;;;;17.38;10.30;;;;;;;7.70;53.54;98080.97;3549844;27;20035;-47
2021/04/06 06:30:58;;;;;;;23.73;10.75;;;;;;;7.84;54.46;98094.72;3538422;28;20400;-46
2021/04/06 06:32:39;;;;;;;16.63;10.40;;;;;;;7.82;51.91;98100.75;3548016;27;20081;-47
2021/04/06 06:34:33;;;;;;;24.35;9.52;;;;;;;7.78;52.78;98089.56;3552455;27;20079;-46
2021/04/06 06:36:15;;;;;;;17.52;10.70;;;;;;;7.81;52.96;98093.88;3550510;27;20057;-46
2021/04/06 06:37:57;;;;;;;24.73;10.90;;;;;;;7.86;52.77;98093.88;3549136;27;20039;-46
2021/04/06 06:39:40;;;;;;;37.22;11.63;;;;;;;7.93;52.61;98100.75;3552590;27;20046;-47
2021/04/06 06:41:22;;;;;;;16.05;8.57;;;;;;;8.03;52.80;98099.88;3551124;27;20042;-47
2021/04/06 06:43:04;;;;;;;17.83;10.15;;;;;;;8.08;51.57;98103.31;3552741;27;20047;-47
2021/04/06 06:44:46;;;;;;;24.10;10.93;;;;;;;8.14;51.79;98095.53;3549073;27;20084;-47
2021/04/06 06:46:35;;;;;;;19.50;10.70;;;;;;;8.15;51.42;98099.00;3550543;27;20054;-46
2021/04/06 06:48:36;;;;;;;31.45;12.27;;;;;;;8.19;51.31;98092.97;3552567;27;20050;-51
2021/04/06 06:50:19;;;;;;;31.33;11.13;;;;;;;8.23;51.21;98096.38;3550243;27;20047;-47
2021/04/06 06:52:01;;;;;;;21.20;11.55;;;;;;;8.26;51.01;98092.06;3552098;27;20101;-47
2021/04/06 06:53:42;;;;;;;18.35;10.63;;;;;;;8.26;51.03;98101.56;3551320;27;20123;-51
2021/04/06 06:55:26;;;;;;;23.13;11.32;;;;;;;8.38;50.80;98104.09;3550480;27;20133;-51
2021/04/06 06:57:10;;;;;;;20.15;10.70;;;;;;;8.51;50.38;98104.91;3551518;27;20409;-49
2021/04/06 06:58:53;;;;;;;21.63;11.02;;;;;;;8.64;50.54;98103.13;3551308;27;20042;-50
2021/04/06 07:00:34;;;;;;;22.73;11.82;;;;;;;8.73;48.71;98092.75;3552400;27;20070;-53
2021/04/06 07:02:24;;;;;;;20.33;10.45;;;;;;;8.78;50.07;98088.44;3548666;27;20431;-51
2021/04/06 07:04:07;;;;;;;14.70;9.00;;;;;;;8.91;50.08;98087.50;3551742;27;20050;-51
2021/04/06 07:05:49;;;;;;;22.35;10.68;;;;;;;9.02;48.27;98092.63;3552342;27;20095;-51
2021/04/06 07:07:30;;;;;;;15.63;10.30;;;;;;;9.09;48.12;98090.88;3550021;27;20047;-53
2021/04/06 07:09:22;;;;;;;17.02;9.73;;;;;;;9.26;49.76;98091.63;3550890;27;20058;-50
2021/04/06 07:11:03;;;;;;;29.65;11.48;;;;;;;9.42;48.41;98086.31;3548701;27;20066;-52
2021/04/06 07:12:45;;;;;;;18.67;10.20;;;;;;;9.51;46.69;98083.72;3552281;27;20054;-50
2021/04/06 07:14:28;;;;;;;43.58;12.93;;;;;;;9.68;48.18;98089.63;3547206;27;20104;-54
2021/04/06 07:16:13;;;;;;;17.58;10.82;;;;;;;9.79;47.41;98091.22;3550321;27;20039;-50
2021/04/06 07:18:00;;;;;;;21.20;12.27;;;;;;;9.86;46.61;98085.16;3550947;27;20058;-50
2021/04/06 07:19:44;;;;;;;19.95;10.73;;;;;;;9.92;46.25;98085.94;3548737;27;20408;-53
2021/04/06 07:21:27;;;;;;;17.45;10.32;;;;;;;10.05;47.53;98093.59;3552374;27;20047;-50
2021/04/06 07:23:13;;;;;;;15.18;9.20;;;;;;;10.15;46.80;98092.63;3548881;27;20065;-47
2021/04/06 07:24:55;;;;;;;21.02;11.50;;;;;;;10.08;45.10;98096.16;3550897;27;20051;-47
2021/04/06 07:26:38;;;;;;;15.20;9.90;;;;;;;10.07;46.04;98091.84;3550090;27;20052;-47
2021/04/06 07:28:19;;;;;;;17.45;9.88;;;;;;;10.14;45.76;98092.63;3550354;27;20053;-47
2021/04/06 07:30:01;;;;;;;17.23;9.98;;;;;;;10.24;45.51;98095.13;3553270;27;20078;-47
2021/04/06 07:31:43;;;;;;;14.90;8.05;;;;;;;10.30;45.56;98096.81;3553248;27;20052;-46
2021/04/06 07:33:28;;;;;;;17.58;9.65;;;;;;;10.34;45.52;98092.44;3554772;27;20055;-48
2021/04/06 07:35:10;;;;;;;20.38;9.80;;;;;;;10.39;44.92;98091.50;3551207;27;20070;-46
2021/04/06 07:36:54;;;;;;;16.13;8.02;;;;;;;10.43;45.93;98088.00;3552994;27;20057;-48
2021/04/06 07:38:38;;;;;;;17.63;10.00;;;;;;;10.43;44.76;98092.34;3554999;27;20051;-46
2021/04/06 07:40:23;;;;;;;19.42;9.38;;;;;;;10.39;45.48;98091.50;3551188;27;20555;-46
2021/04/06 07:42:05;;;;;;;;;;;;;;;10.37;44.02;98090.69;3555285;27;20077;-47
2021/04/06 07:43:47;;;;;;;35.70;15.30;;;;;;;10.43;45.12;98095.78;3551035;27;20427;-47
2021/04/06 07:45:45;;;;;;;16.73;8.68;;;;;;;10.49;44.54;98092.25;3552816;27;20047;-47
2021/04/06 07:47:36;;;;;;;14.00;9.02;;;;;;;10.52;44.77;98096.56;3553188;27;20542;-53
2021/04/06 07:49:38;;;;;;;13.50;8.88;;;;;;;10.58;43.58;98091.28;3550963;27;20148;-47
2021/04/06 07:51:22;;;;;;;17.67;9.52;;;;;;;10.77;44.41;98099.72;3553641;27;20051;-47
2021/04/06 07:53:22;;;;;;;15.60;9.75;;;;;;;10.97;44.34;98095.13;3552677;27;20043;-48
2021/04/06 07:55:04;;;;;;;15.23;8.93;;;;;;;11.15;43.28;98091.41;3553171;27;20049;-47
2021/04/06 07:56:49;;;;;;;13.55;7.53;;;;;;;11.34;41.83;98091.16;3554265;27;20047;-47
2021/04/06 07:58:47;;;;;;;16.33;8.45;;;;;;;11.46;41.60;98092.72;3550895;27;20111;-53
2021/04/06 08:00:48;;;;;;;14.68;8.93;;;;;;;11.44;41.58;98103.13;3552330;27;20141;-49
2021/04/06 08:02:32;;;;;;;13.40;7.18;;;;;;;11.40;41.41;98104.06;3568416;27;20082;-50
2021/04/06 08:04:14;;;;;;;;;;;;;;;11.37;42.07;98110.16;3554864;27;20054;-51
2021/04/06 08:06:19;;;;;;;12.77;8.15;;;;;;;11.20;40.80;98112.97;3554235;27;19922;-50